createdAt,value
2022-12-13T00:01:29.660Z,18.63
2022-12-13T00:03:57.914Z,18.65
2022-12-13T00:06:25.420Z,18.13
2022-12-13T00:08:52.791Z,19.35
2022-12-13T00:11:19.431Z,18.45
2022-12-13T00:13:47.949Z,18.15
2022-12-13T00:16:20.430Z,17.83
2022-12-13T00:18:48.622Z,17.42
2022-12-13T00:21:18.377Z,18.10
2022-12-13T00:23:45.779Z,18.45
2022-12-13T00:26:18.060Z,18.27
2022-12-13T00:28:45.151Z,17.92
2022-12-13T00:31:53.677Z,17.17
2022-12-13T00:33:59.462Z,17.42
2022-12-13T00:36:26.520Z,17.10
2022-12-13T00:39:02.335Z,17.00
2022-12-13T00:41:32.618Z,18.40
2022-12-13T00:43:59.956Z,18.15
2022-12-13T00:46:27.707Z,18.02
2022-12-13T00:48:57.765Z,18.40
2022-12-13T00:51:25.935Z,18.23
2022-12-13T00:53:52.567Z,18.10
2022-12-13T00:56:21.875Z,16.98
2022-12-13T00:58:52.124Z,17.80
2022-12-13T01:01:21.715Z,16.58
2022-12-13T01:03:48.469Z,17.48
2022-12-13T01:06:18.762Z,16.65
2022-12-13T01:08:45.759Z,16.38
2022-12-13T01:11:13.591Z,17.02
2022-12-13T01:13:41.219Z,17.92
2022-12-13T01:16:09.919Z,18.08
2022-12-13T01:18:37.564Z,17.13
2022-12-13T01:21:11.523Z,17.15
2022-12-13T01:23:38.145Z,17.58
2022-12-13T01:26:06.360Z,18.63
2022-12-13T01:28:33.560Z,17.38
2022-12-13T01:31:04.508Z,17.27
2022-12-13T01:33:31.612Z,17.63
2022-12-13T01:36:02.199Z,17.17
2022-12-13T01:38:29.150Z,17.67
2022-12-13T01:40:59.168Z,17.17
2022-12-13T01:43:50.180Z,17.80
2022-12-13T01:46:18.082Z,16.90
2022-12-13T01:48:46.501Z,16.67
2022-12-13T01:51:17.919Z,17.20
2022-12-13T01:53:48.810Z,15.50
2022-12-13T01:56:25.157Z,17.48
2022-12-13T01:58:54.523Z,18.35
2022-12-13T02:01:22.376Z,17.27
2022-12-13T02:03:48.986Z,15.95
2022-12-13T02:06:21.176Z,16.80
2022-12-13T02:08:47.725Z,16.83
2022-12-13T02:11:15.642Z,16.70
2022-12-13T02:13:42.306Z,18.02
2022-12-13T02:16:24.193Z,17.25
2022-12-13T02:19:14.665Z,14.98
2022-12-13T02:22:01.831Z,17.08
2022-12-13T02:24:34.421Z,17.45
2022-12-13T02:27:07.918Z,16.40
2022-12-13T02:29:56.685Z,16.05
2022-12-13T02:32:38.595Z,16.55
2022-12-13T02:35:14.903Z,16.98
2022-12-13T02:37:56.189Z,17.80
2022-12-13T02:40:54.747Z,17.35
2022-12-13T02:43:35.690Z,17.17
2022-12-13T02:46:04.926Z,19.00
2022-12-13T02:48:39.799Z,20.98
2022-12-13T02:51:10.570Z,18.02
2022-12-13T02:53:40.351Z,17.47
2022-12-13T02:56:06.951Z,28.58
2022-12-13T02:58:36.556Z,22.00
2022-12-13T03:01:28.565Z,17.50
2022-12-13T03:04:28.050Z,17.67
2022-12-13T03:07:06.778Z,18.48
2022-12-13T03:09:41.880Z,16.50
2022-12-13T03:12:45.344Z,16.80
2022-12-13T03:15:16.257Z,17.02
2022-12-13T03:17:59.281Z,16.52
2022-12-13T03:20:28.593Z,16.75
2022-12-13T03:22:56.601Z,16.00
2022-12-13T03:25:31.446Z,15.60
2022-12-13T03:28:01.724Z,16.13
2022-12-13T03:30:30.137Z,16.40
2022-12-13T03:32:56.712Z,16.13
2022-12-13T03:35:23.503Z,16.80
2022-12-13T03:37:50.687Z,16.02
2022-12-13T03:40:19.225Z,16.70
2022-12-13T03:42:47.034Z,16.38
2022-12-13T03:45:14.001Z,16.65
2022-12-13T03:47:40.784Z,20.35
2022-12-13T03:50:26.999Z,15.70
2022-12-13T03:53:00.801Z,16.65
2022-12-13T03:55:28.518Z,19.23
2022-12-13T03:57:55.496Z,18.40
2022-12-13T04:00:22.570Z,19.13
2022-12-13T04:02:49.200Z,17.20
2022-12-13T04:05:16.377Z,17.27
2022-12-13T04:07:48.392Z,16.75
2022-12-13T04:10:26.305Z,19.50
2022-12-13T04:13:12.837Z,20.17
2022-12-13T04:15:40.330Z,20.23
2022-12-13T04:18:06.924Z,16.92
2022-12-13T04:20:33.524Z,15.77
2022-12-13T04:23:00.546Z,16.52
2022-12-13T04:25:27.214Z,18.17
2022-12-13T04:27:53.826Z,15.93
2022-12-13T04:30:20.444Z,16.20
2022-12-13T04:32:47.000Z,16.15
2022-12-13T04:35:13.650Z,19.52
2022-12-13T04:37:40.422Z,17.88
2022-12-13T04:40:11.088Z,16.92
2022-12-13T04:42:37.787Z,17.38
2022-12-13T04:45:04.815Z,17.08
2022-12-13T04:47:31.356Z,19.80
2022-12-13T04:49:58.085Z,17.60
2022-12-13T04:52:24.952Z,14.65
2022-12-13T04:54:55.651Z,16.08
2022-12-13T04:57:23.553Z,15.55
2022-12-13T04:59:50.121Z,15.80
2022-12-13T05:02:16.703Z,15.95
2022-12-13T05:04:54.009Z,14.98
2022-12-13T05:07:21.863Z,15.55
2022-12-13T05:09:48.865Z,15.00
2022-12-13T05:12:22.307Z,17.08
2022-12-13T05:14:50.526Z,14.95
2022-12-13T05:17:17.074Z,15.43
2022-12-13T05:19:43.672Z,15.32
2022-12-13T05:22:20.213Z,15.95
2022-12-13T05:24:47.868Z,15.15
2022-12-13T05:27:25.841Z,15.60
2022-12-13T05:30:03.463Z,15.52
2022-12-13T05:32:43.657Z,17.08
2022-12-13T05:35:22.120Z,15.38
2022-12-13T05:37:53.389Z,15.35
2022-12-13T05:40:20.513Z,15.65
2022-12-13T05:42:47.107Z,14.48
2022-12-13T05:45:14.963Z,15.90
2022-12-13T05:47:41.648Z,17.70
2022-12-13T05:50:08.357Z,15.48
2022-12-13T05:52:34.965Z,16.88
2022-12-13T05:55:01.645Z,12.75
2022-12-13T05:57:28.648Z,14.98
2022-12-13T05:59:55.659Z,12.63
2022-12-13T06:02:22.776Z,14.70
2022-12-13T06:04:49.662Z,14.73
2022-12-13T06:07:16.252Z,13.30
2022-12-13T06:09:42.937Z,14.10
2022-12-13T06:12:31.520Z,14.00
2022-12-13T06:15:00.849Z,14.13
2022-12-13T06:17:36.024Z,14.73
2022-12-13T06:20:23.987Z,13.02
2022-12-13T06:22:52.176Z,14.60
2022-12-13T06:25:30.760Z,13.52
2022-12-13T06:28:00.739Z,15.90
2022-12-13T06:30:28.930Z,16.55
2022-12-13T06:32:55.921Z,14.45
2022-12-13T06:35:28.108Z,14.20
2022-12-13T06:38:00.879Z,15.77
2022-12-13T06:40:31.854Z,14.50
2022-12-13T06:42:58.381Z,14.57
2022-12-13T06:45:26.229Z,14.52
2022-12-13T06:47:52.801Z,17.58
2022-12-13T06:50:19.495Z,15.95
2022-12-13T06:52:47.043Z,15.25
2022-12-13T06:55:14.174Z,21.77
2022-12-13T06:57:41.339Z,17.35
2022-12-13T07:00:09.726Z,16.60
2022-12-13T07:02:38.224Z,29.55
2022-12-13T07:05:05.343Z,19.73
2022-12-13T07:07:32.030Z,16.17
2022-12-13T07:09:58.621Z,15.48
2022-12-13T07:12:25.240Z,14.88
2022-12-13T07:14:51.838Z,13.77
2022-12-13T07:17:31.940Z,14.48
2022-12-13T07:20:02.475Z,16.05
2022-12-13T07:22:29.016Z,17.25
2022-12-13T07:25:01.602Z,16.85
2022-12-13T07:27:28.206Z,15.25
2022-12-13T07:29:54.743Z,16.80
2022-12-13T07:32:21.451Z,22.85
2022-12-13T07:34:48.049Z,17.00
2022-12-13T07:37:30.113Z,15.65
2022-12-13T07:40:03.273Z,16.30
2022-12-13T07:42:31.021Z,16.73
2022-12-13T07:44:57.603Z,16.35
2022-12-13T07:47:25.921Z,18.23
2022-12-13T07:49:52.585Z,14.20
2022-12-13T07:52:19.197Z,15.75
2022-12-13T07:54:45.762Z,16.92
2022-12-13T07:57:13.356Z,16.27
2022-12-13T07:59:39.948Z,17.38
2022-12-13T08:02:07.171Z,15.77
2022-12-13T08:04:37.547Z,21.17
2022-12-13T08:07:09.102Z,16.48
2022-12-13T08:09:36.271Z,13.35
2022-12-13T08:12:03.419Z,17.10
2022-12-13T08:14:29.980Z,15.57
2022-12-13T08:16:56.740Z,15.30
2022-12-13T08:19:23.681Z,14.05
2022-12-13T08:21:55.212Z,14.57
2022-12-13T08:24:28.624Z,15.02
2022-12-13T08:26:57.446Z,14.15
2022-12-13T08:29:33.504Z,15.43
2022-12-13T08:32:12.116Z,14.48
2022-12-13T08:34:39.157Z,16.60
2022-12-13T08:37:06.092Z,13.32
2022-12-13T08:39:37.532Z,15.20
2022-12-13T08:42:17.211Z,14.35
2022-12-13T08:44:49.231Z,17.15
2022-12-13T08:47:24.396Z,19.40
2022-12-13T08:50:01.832Z,17.52
2022-12-13T08:52:30.781Z,20.48
2022-12-13T08:54:57.377Z,22.70
2022-12-13T08:57:23.960Z,23.20
2022-12-13T08:59:50.582Z,31.77
2022-12-13T09:02:17.599Z,31.80
2022-12-13T09:04:44.559Z,29.10
2022-12-13T09:07:11.232Z,21.60
2022-12-13T09:09:37.886Z,26.00
2022-12-13T09:12:10.958Z,22.42
2022-12-13T09:14:51.863Z,16.58
2022-12-13T09:17:24.838Z,18.90
2022-12-13T09:19:57.776Z,17.45
2022-12-13T09:22:33.113Z,22.00
2022-12-13T09:25:02.775Z,26.60
2022-12-13T09:27:31.311Z,17.27
2022-12-13T09:30:08.302Z,34.78
2022-12-13T09:32:34.915Z,21.65
2022-12-13T09:35:02.100Z,23.50
2022-12-13T09:37:29.382Z,29.35
2022-12-13T09:39:55.926Z,22.73
2022-12-13T09:42:33.761Z,32.53
2022-12-13T09:45:06.450Z,19.20
2022-12-13T09:47:51.238Z,20.25
2022-12-13T09:50:29.729Z,14.55
2022-12-13T09:53:11.901Z,16.67
2022-12-13T09:55:50.451Z,15.60
2022-12-13T09:58:29.790Z,15.27
2022-12-13T10:00:58.514Z,16.83
2022-12-13T10:03:26.402Z,13.45
2022-12-13T10:06:13.763Z,15.82
2022-12-13T10:08:47.223Z,17.58
2022-12-13T10:11:14.982Z,17.85
2022-12-13T10:14:12.421Z,14.45
2022-12-13T10:16:49.651Z,17.33
2022-12-13T10:19:28.380Z,15.05
2022-12-13T10:22:01.244Z,14.63
2022-12-13T10:24:47.036Z,16.63
2022-12-13T10:27:16.859Z,14.00
2022-12-13T10:30:06.055Z,15.05
2022-12-13T10:32:42.353Z,12.90
2022-12-13T10:35:21.257Z,14.40
2022-12-13T10:37:48.146Z,14.05
2022-12-13T10:40:34.559Z,12.95
2022-12-13T10:43:20.383Z,12.18
2022-12-13T10:45:55.850Z,14.40
2022-12-13T10:48:25.409Z,13.20
2022-12-13T10:50:58.725Z,11.77
2022-12-13T10:53:33.196Z,12.20
2022-12-13T10:56:02.109Z,12.95
2022-12-13T10:58:38.803Z,13.10
2022-12-13T11:01:19.112Z,12.73
2022-12-13T11:04:03.880Z,13.32
2022-12-13T11:06:47.811Z,12.10
2022-12-13T11:09:22.993Z,11.00
2022-12-13T11:11:58.601Z,10.43
2022-12-13T11:14:31.907Z,10.88
2022-12-13T11:17:07.249Z,10.90
2022-12-13T11:19:51.357Z,10.80
2022-12-13T11:22:29.370Z,10.68
2022-12-13T11:25:06.383Z,10.75
2022-12-13T11:28:37.671Z,10.18
2022-12-13T11:31:15.816Z,9.80
2022-12-13T11:33:51.356Z,10.10
2022-12-13T11:36:36.616Z,11.23
2022-12-13T11:39:16.757Z,10.85
2022-12-13T11:41:49.129Z,10.35
2022-12-13T11:44:23.676Z,9.82
2022-12-13T11:46:54.430Z,10.50
2022-12-13T11:49:36.290Z,9.90
2022-12-13T11:52:11.927Z,10.68
2022-12-13T11:54:55.326Z,10.30
2022-12-13T11:57:35.738Z,10.55
2022-12-13T12:00:33.954Z,10.70
2022-12-13T12:03:18.593Z,10.10
2022-12-13T12:05:56.535Z,9.30
2022-12-13T12:08:44.376Z,15.23
2022-12-13T12:11:33.540Z,22.00
2022-12-13T12:14:11.024Z,28.05
2022-12-13T12:16:47.401Z,24.45
2022-12-13T12:19:16.348Z,29.95
2022-12-13T12:22:12.803Z,15.43
2022-12-13T12:24:48.191Z,26.17
2022-12-13T12:27:28.455Z,22.77
2022-12-13T12:30:08.725Z,13.10
2022-12-13T12:32:44.030Z,14.57
2022-12-13T12:35:50.888Z,14.88
2022-12-13T12:38:32.455Z,12.48
2022-12-13T12:41:18.732Z,21.13
2022-12-13T12:43:55.571Z,16.05
2022-12-13T12:46:22.254Z,18.15
2022-12-13T12:49:29.131Z,11.07
2022-12-13T12:52:15.040Z,9.95
2022-12-13T12:54:41.566Z,10.18
2022-12-13T12:57:30.957Z,11.73
2022-12-13T13:00:16.039Z,9.50
2022-12-13T13:03:09.527Z,10.45
2022-12-13T13:05:58.543Z,9.57
2022-12-13T13:08:54.972Z,8.82
2022-12-13T13:11:27.372Z,9.18
2022-12-13T13:14:36.519Z,9.10
2022-12-13T13:17:25.008Z,8.75
2022-12-13T13:20:13.147Z,9.05
2022-12-13T13:22:42.811Z,9.10
2022-12-13T13:25:09.685Z,7.82
2022-12-13T13:27:41.944Z,8.85
2022-12-13T13:30:19.532Z,9.93
2022-12-13T13:32:47.154Z,18.23
2022-12-13T13:35:28.985Z,10.52
2022-12-13T13:37:57.229Z,11.40
2022-12-13T13:40:34.559Z,14.68
2022-12-13T13:43:10.226Z,12.13
2022-12-13T13:45:52.217Z,8.27
2022-12-13T13:48:24.836Z,12.45
2022-12-13T13:51:27.281Z,9.52
2022-12-13T13:54:31.433Z,8.52
2022-12-13T14:00:44.656Z,9.85
2022-12-13T14:03:34.060Z,8.50
2022-12-13T14:06:25.969Z,8.23
2022-12-13T14:09:14.027Z,8.57
2022-12-13T14:11:43.327Z,9.38
2022-12-13T14:14:21.415Z,17.98
2022-12-13T14:16:49.129Z,11.50
2022-12-13T14:19:30.609Z,23.75
2022-12-13T14:22:22.503Z,36.83
2022-12-13T14:24:51.677Z,13.75
2022-12-13T14:27:42.810Z,9.90
2022-12-13T14:30:28.064Z,9.63
2022-12-13T14:32:56.762Z,9.35
2022-12-13T14:35:30.120Z,8.00
2022-12-13T14:38:20.766Z,8.05
2022-12-13T14:40:49.865Z,8.23
2022-12-13T14:43:25.419Z,10.88
2022-12-13T14:45:58.207Z,10.60
2022-12-13T14:48:28.035Z,10.05
2022-12-13T14:50:55.866Z,8.65
2022-12-13T14:53:41.465Z,8.85
2022-12-13T14:56:28.597Z,8.13
2022-12-13T14:58:58.203Z,8.55
2022-12-13T15:01:29.525Z,9.00
2022-12-13T15:04:35.787Z,8.23
2022-12-13T15:07:06.984Z,8.05
2022-12-13T15:09:42.592Z,8.80
2022-12-13T15:12:23.430Z,9.30
2022-12-13T15:15:00.972Z,9.10
2022-12-13T15:17:31.832Z,9.43
2022-12-13T15:19:58.895Z,8.35
2022-12-13T15:22:29.483Z,13.25
2022-12-13T15:24:58.027Z,12.63
2022-12-13T15:27:25.268Z,9.77
2022-12-13T15:29:54.346Z,10.65
2022-12-13T15:32:23.391Z,9.88
2022-12-13T15:34:51.524Z,10.65
2022-12-13T15:37:28.370Z,9.77
2022-12-13T15:40:00.749Z,9.77
2022-12-13T15:42:37.050Z,9.43
2022-12-13T15:45:06.480Z,9.75
2022-12-13T15:47:33.574Z,13.40
2022-12-13T15:50:04.075Z,8.75
2022-12-13T15:52:37.300Z,10.88
2022-12-13T15:55:07.084Z,11.02
2022-12-13T15:57:51.673Z,11.95
2022-12-13T16:00:18.439Z,12.80
2022-12-13T16:03:09.466Z,13.38
2022-12-13T16:05:40.728Z,13.27
2022-12-13T16:08:17.916Z,10.45
2022-12-13T16:10:49.795Z,11.18
2022-12-13T16:16:46.759Z,11.75
2022-12-13T16:19:17.890Z,10.43
2022-12-13T16:21:44.625Z,10.18
2022-12-13T16:24:11.220Z,11.18
2022-12-13T16:26:43.129Z,9.77
2022-12-13T16:31:38.470Z,9.93
2022-12-13T16:34:05.809Z,9.88
2022-12-13T16:36:32.750Z,13.50
2022-12-13T16:38:59.445Z,13.10
2022-12-13T16:41:26.225Z,14.73
2022-12-13T16:44:03.357Z,11.18
2022-12-13T16:47:16.938Z,14.38
2022-12-13T16:49:21.453Z,10.43
2022-12-13T16:51:49.153Z,7.07
2022-12-13T16:54:17.146Z,10.70
2022-12-13T16:56:43.797Z,8.95
2022-12-13T16:59:19.110Z,10.45
2022-12-13T17:01:46.793Z,10.27
2022-12-13T17:04:20.085Z,10.23
2022-12-13T17:06:47.352Z,11.43
2022-12-13T17:09:15.078Z,10.95
2022-12-13T17:11:41.629Z,9.20
2022-12-13T17:14:08.552Z,8.73
2022-12-13T17:16:35.208Z,10.55
2022-12-13T17:19:02.226Z,9.80
2022-12-13T17:21:30.105Z,10.30
2022-12-13T17:23:58.507Z,9.68
2022-12-13T17:26:26.144Z,10.80
2022-12-13T17:28:52.993Z,10.48
2022-12-13T17:31:20.526Z,9.40
2022-12-13T17:33:47.469Z,10.02
2022-12-13T17:36:15.773Z,10.00
2022-12-13T17:38:47.119Z,9.82
2022-12-13T17:41:15.716Z,10.73
2022-12-13T17:43:43.369Z,9.95
2022-12-13T17:46:13.519Z,9.82
2022-12-13T17:48:41.340Z,9.90
2022-12-13T17:51:12.477Z,9.90
2022-12-13T17:53:41.120Z,6.78
2022-12-13T17:56:10.695Z,10.75
2022-12-13T17:58:37.296Z,10.88
2022-12-13T18:01:33.669Z,18.35
2022-12-13T18:04:00.825Z,17.08
2022-12-13T18:06:27.417Z,16.83
2022-12-13T18:08:54.154Z,13.75
2022-12-13T18:11:32.924Z,23.52
2022-12-13T18:14:01.125Z,12.90
2022-12-13T18:16:35.830Z,15.57
2022-12-13T18:19:06.114Z,10.63
2022-12-13T18:21:33.101Z,13.48
2022-12-13T18:23:59.913Z,13.20
2022-12-13T18:26:26.448Z,14.38
2022-12-13T18:28:53.057Z,12.07
2022-12-13T18:31:23.080Z,11.70
2022-12-13T18:33:50.994Z,13.35
2022-12-13T18:36:19.365Z,11.15
2022-12-13T18:38:46.847Z,11.23
2022-12-13T18:41:16.980Z,11.25
2022-12-13T18:43:45.124Z,12.50
2022-12-13T18:46:14.102Z,12.40
2022-12-13T18:48:41.096Z,12.18
2022-12-13T18:51:08.922Z,12.65
2022-12-13T18:53:37.285Z,13.20
2022-12-13T18:56:07.005Z,13.80
2022-12-13T18:58:34.098Z,28.77
2022-12-13T19:01:01.053Z,15.35
2022-12-13T19:03:28.025Z,16.45
2022-12-13T19:05:59.365Z,33.22
2022-12-13T19:08:26.902Z,23.33
2022-12-13T19:10:56.823Z,26.42
2022-12-13T19:13:25.249Z,18.45
2022-12-13T19:15:53.826Z,21.90
2022-12-13T19:18:20.790Z,30.08
2022-12-13T19:20:49.536Z,21.70
2022-12-13T19:23:17.975Z,16.90
2022-12-13T19:25:45.656Z,17.95
2022-12-13T19:28:17.534Z,24.42
2022-12-13T19:30:46.147Z,18.42
2022-12-13T19:33:14.166Z,20.15
2022-12-13T19:35:44.753Z,26.23
2022-12-13T19:38:12.315Z,18.17
2022-12-13T19:40:40.022Z,12.68
2022-12-13T19:43:07.030Z,17.23
2022-12-13T19:45:34.104Z,14.10
2022-12-13T19:48:00.712Z,14.13
2022-12-13T19:50:28.733Z,13.88
2022-12-13T19:52:55.309Z,12.77
2022-12-13T19:55:21.894Z,12.82
2022-12-13T19:57:48.622Z,12.45
2022-12-13T20:00:15.635Z,12.23
2022-12-13T20:02:42.319Z,12.10
2022-12-13T20:05:09.425Z,12.52
2022-12-13T20:07:36.080Z,12.50
2022-12-13T20:10:03.661Z,13.40
2022-12-13T20:12:31.399Z,13.05
2022-12-13T20:15:02.743Z,12.95
2022-12-13T20:17:29.720Z,12.80
2022-12-13T20:19:56.370Z,12.38
2022-12-13T20:22:22.933Z,12.75
2022-12-13T20:24:49.465Z,12.73
2022-12-13T20:27:16.061Z,13.00
2022-12-13T20:29:42.680Z,12.15
2022-12-13T20:32:14.978Z,12.90
2022-12-13T20:34:41.588Z,12.80
2022-12-13T20:37:08.190Z,14.40
2022-12-13T20:39:35.124Z,13.57
2022-12-13T20:42:01.704Z,14.45
2022-12-13T20:44:28.403Z,13.23
2022-12-13T20:46:55.254Z,12.00
2022-12-13T20:49:21.951Z,12.70
2022-12-13T20:51:48.481Z,12.45
2022-12-13T20:54:15.203Z,13.00
2022-12-13T20:56:41.820Z,15.25
2022-12-13T20:59:11.872Z,16.08
2022-12-13T21:01:40.809Z,19.95
2022-12-13T21:04:09.186Z,26.13
2022-12-13T21:06:37.508Z,20.67
2022-12-13T21:09:05.399Z,16.70
2022-12-13T21:11:32.140Z,21.15
2022-12-13T21:14:03.781Z,23.40
2022-12-13T21:16:40.094Z,21.02
2022-12-13T21:19:08.523Z,24.35
2022-12-13T21:21:35.441Z,15.82
2022-12-13T21:24:03.225Z,19.75
2022-12-13T21:26:35.371Z,19.23
2022-12-13T21:29:05.083Z,16.33
2022-12-13T21:31:31.883Z,19.92
2022-12-13T21:34:01.386Z,19.20
2022-12-13T21:36:30.508Z,18.60
2022-12-13T21:39:00.463Z,20.13
2022-12-13T21:41:28.118Z,21.48
2022-12-13T21:43:55.237Z,37.90
2022-12-13T21:46:41.437Z,13.80
2022-12-13T21:49:14.526Z,12.90
2022-12-13T21:51:46.056Z,13.20
2022-12-13T21:54:14.415Z,14.07
2022-12-13T21:56:59.224Z,14.93
2022-12-13T21:59:27.816Z,13.52
2022-12-13T22:02:14.369Z,13.55
2022-12-13T22:04:46.821Z,12.45
2022-12-13T22:07:16.332Z,13.15
2022-12-13T22:09:43.077Z,14.73
2022-12-13T22:12:17.953Z,12.65
2022-12-13T22:14:45.936Z,14.05
2022-12-13T22:17:12.806Z,13.95
2022-12-13T22:19:39.942Z,13.10
2022-12-13T22:22:06.862Z,14.20
2022-12-13T22:24:33.809Z,13.82
2022-12-13T22:27:00.974Z,13.23
2022-12-13T22:29:27.714Z,13.10
2022-12-13T22:31:54.325Z,13.75
2022-12-13T22:34:20.964Z,13.30
2022-12-13T22:36:47.499Z,14.07
2022-12-13T22:39:19.636Z,14.40
2022-12-13T22:41:47.726Z,13.63
2022-12-13T22:44:16.249Z,13.80
2022-12-13T22:46:43.223Z,13.55
2022-12-13T22:49:10.950Z,13.48
2022-12-13T22:51:38.700Z,13.32
2022-12-13T22:54:05.752Z,12.82
2022-12-13T22:56:32.424Z,12.73
2022-12-13T22:59:01.936Z,12.15
2022-12-13T23:01:31.607Z,13.15
2022-12-13T23:03:58.891Z,11.77
2022-12-13T23:06:30.887Z,12.93
2022-12-13T23:09:00.101Z,12.57
2022-12-13T23:11:46.273Z,13.07
2022-12-13T23:14:15.619Z,12.38
2022-12-13T23:16:42.851Z,12.57
2022-12-13T23:19:40.220Z,11.32
2022-12-13T23:21:58.142Z,11.43
2022-12-13T23:24:24.901Z,13.43
2022-12-13T23:26:51.701Z,11.93
2022-12-13T23:29:18.336Z,12.20
2022-12-13T23:31:48.912Z,12.63
2022-12-13T23:34:16.241Z,12.70
2022-12-13T23:36:43.005Z,13.00
2022-12-13T23:39:10.973Z,11.63
2022-12-13T23:41:37.628Z,12.70
2022-12-13T23:44:04.715Z,12.75
2022-12-13T23:46:33.726Z,12.55
2022-12-13T23:49:01.638Z,13.30
2022-12-13T23:51:28.485Z,12.90
2022-12-13T23:53:55.386Z,12.10
2022-12-13T23:56:22.777Z,12.00
2022-12-13T23:58:49.719Z,12.40
